createdAt,value
2022-08-07T00:01:43.937Z,100.00
2022-08-07T00:04:09.711Z,100.00
2022-08-07T00:06:51.103Z,100.00
2022-08-07T00:09:22.738Z,100.00
2022-08-07T00:11:56.026Z,100.00
2022-08-07T00:14:31.259Z,100.00
2022-08-07T00:17:02.710Z,100.00
2022-08-07T00:19:59.723Z,100.00
2022-08-07T00:22:24.837Z,100.00
2022-08-07T00:25:11.133Z,100.00
2022-08-07T00:27:53.199Z,100.00
2022-08-07T00:30:27.026Z,100.00
2022-08-07T00:33:00.943Z,100.00
2022-08-07T00:35:30.642Z,100.00
2022-08-07T00:38:00.290Z,100.00
2022-08-07T00:40:39.775Z,100.00
2022-08-07T00:43:59.472Z,100.00
2022-08-07T00:45:59.320Z,100.00
2022-08-07T00:48:31.734Z,100.00
2022-08-07T00:51:02.597Z,100.00
2022-08-07T00:53:39.281Z,100.00
2022-08-07T00:56:17.823Z,100.00
2022-08-07T00:58:46.747Z,100.00
2022-08-07T01:01:20.574Z,100.00
2022-08-07T01:03:56.180Z,100.00
2022-08-07T01:06:29.555Z,100.00
2022-08-07T01:09:00.926Z,100.00
2022-08-07T01:12:26.519Z,100.00
2022-08-07T01:14:21.098Z,100.00
2022-08-07T01:16:56.562Z,100.00
2022-08-07T01:19:27.691Z,100.00
2022-08-07T01:22:00.910Z,100.00
2022-08-07T01:24:32.076Z,100.00
2022-08-07T01:27:00.997Z,100.00
2022-08-07T01:29:31.425Z,100.00
2022-08-07T01:32:05.241Z,100.00
2022-08-07T01:34:35.013Z,100.00
2022-08-07T01:37:02.352Z,100.00
2022-08-07T01:39:41.030Z,100.00
2022-08-07T01:42:38.653Z,100.00
2022-08-07T01:45:09.628Z,100.00
2022-08-07T01:48:27.338Z,100.00
2022-08-07T01:50:28.878Z,100.00
2022-08-07T01:53:01.696Z,100.00
2022-08-07T01:55:50.802Z,100.00
2022-08-07T01:58:28.912Z,100.00
2022-08-07T02:01:09.820Z,100.00
2022-08-07T02:04:03.293Z,100.00
2022-08-07T02:06:38.486Z,100.00
2022-08-07T02:09:11.723Z,100.00
2022-08-07T02:12:17.629Z,100.00
2022-08-07T02:14:57.308Z,100.00
2022-08-07T02:17:27.119Z,100.00
2022-08-07T02:20:04.349Z,100.00
2022-08-07T02:22:38.360Z,100.00
2022-08-07T02:25:18.209Z,100.00
2022-08-07T02:27:52.288Z,100.00
2022-08-07T02:30:20.817Z,100.00
2022-08-07T02:33:00.635Z,100.00
2022-08-07T02:36:30.362Z,100.00
2022-08-07T02:38:33.337Z,100.00
2022-08-07T02:41:04.331Z,100.00
2022-08-07T02:43:34.655Z,100.00
2022-08-07T02:46:05.991Z,100.00
2022-08-07T02:48:34.462Z,100.00
2022-08-07T02:51:42.085Z,100.00
2022-08-07T02:54:05.450Z,100.00
2022-08-07T02:56:34.630Z,100.00
2022-08-07T02:59:10.313Z,100.00
2022-08-07T03:01:41.784Z,100.00
2022-08-07T03:04:17.269Z,100.00
2022-08-07T03:06:48.169Z,100.00
2022-08-07T03:09:43.314Z,100.00
2022-08-07T03:12:08.118Z,100.00
2022-08-07T03:14:52.543Z,100.00
2022-08-07T03:17:22.138Z,100.00
2022-08-07T03:19:54.572Z,100.00
2022-08-07T03:22:30.287Z,100.00
2022-08-07T03:25:00.183Z,100.00
2022-08-07T03:27:30.424Z,100.00
2022-08-07T03:30:17.511Z,100.00
2022-08-07T03:32:58.925Z,100.00
2022-08-07T03:35:37.996Z,100.00
2022-08-07T03:38:16.161Z,100.00
2022-08-07T03:40:53.946Z,100.00
2022-08-07T03:43:26.515Z,100.00
2022-08-07T03:45:54.057Z,100.00
2022-08-07T03:48:21.293Z,100.00
2022-08-07T03:50:57.812Z,100.00
2022-08-07T03:54:01.833Z,100.00
2022-08-07T03:56:33.001Z,100.00
2022-08-07T03:59:09.455Z,100.00
2022-08-07T04:01:45.420Z,100.00
2022-08-07T04:04:17.829Z,100.00
2022-08-07T04:06:46.215Z,100.00
2022-08-07T04:09:23.089Z,100.00
2022-08-07T04:12:28.509Z,100.00
2022-08-07T04:14:43.743Z,100.00
2022-08-07T04:17:21.028Z,100.00
2022-08-07T04:19:52.080Z,100.00
2022-08-07T04:22:29.330Z,100.00
2022-08-07T04:25:01.517Z,100.00
2022-08-07T04:27:35.819Z,100.00
2022-08-07T04:30:11.691Z,100.00
2022-08-07T04:32:44.669Z,100.00
2022-08-07T04:35:15.788Z,100.00
2022-08-07T04:38:02.831Z,100.00
2022-08-07T04:40:30.040Z,100.00
2022-08-07T04:43:01.577Z,100.00
2022-08-07T04:46:01.593Z,100.00
2022-08-07T04:49:07.530Z,100.00
2022-08-07T04:52:10.763Z,100.00
2022-08-07T04:55:14.939Z,100.00
2022-08-07T04:58:27.864Z,100.00
2022-08-07T05:01:22.741Z,100.00
2022-08-07T05:04:17.391Z,100.00
2022-08-07T05:07:20.705Z,100.00
2022-08-07T05:10:05.966Z,100.00
2022-08-07T05:12:52.828Z,100.00
2022-08-07T05:15:35.915Z,100.00
2022-08-07T05:18:11.626Z,100.00
2022-08-07T05:20:53.619Z,100.00
2022-08-07T05:23:32.350Z,100.00
2022-08-07T05:26:13.563Z,100.00
2022-08-07T05:28:50.722Z,100.00
2022-08-07T05:31:35.197Z,100.00
2022-08-07T05:34:11.042Z,100.00
2022-08-07T05:36:43.492Z,100.00
2022-08-07T05:40:14.282Z,100.00
2022-08-07T05:42:07.389Z,100.00
2022-08-07T05:44:52.944Z,100.00
2022-08-07T05:47:38.126Z,100.00
2022-08-07T05:50:17.853Z,100.00
2022-08-07T05:52:44.851Z,100.00
2022-08-07T05:55:13.538Z,100.00
2022-08-07T05:57:45.532Z,100.00
2022-08-07T06:00:16.168Z,100.00
2022-08-07T06:02:50.834Z,100.00
2022-08-07T06:05:28.181Z,100.00
2022-08-07T06:08:14.172Z,100.00
2022-08-07T06:10:54.674Z,100.00
2022-08-07T06:14:10.506Z,100.00
2022-08-07T06:16:13.534Z,100.00
2022-08-07T06:18:43.176Z,100.00
2022-08-07T06:22:14.367Z,100.00
2022-08-07T06:24:45.414Z,100.00
2022-08-07T06:26:55.671Z,100.00
2022-08-07T06:29:29.106Z,100.00
2022-08-07T06:31:56.158Z,100.00
2022-08-07T06:34:29.658Z,100.00
2022-08-07T06:36:56.756Z,100.00
2022-08-07T06:40:15.817Z,100.00
2022-08-07T06:42:34.884Z,100.00
2022-08-07T06:45:11.114Z,100.00
2022-08-07T06:47:48.083Z,100.00
2022-08-07T06:50:26.991Z,100.00
2022-08-07T06:53:00.848Z,100.00
2022-08-07T06:56:00.328Z,99.03
2022-08-07T06:58:28.847Z,94.69
2022-08-07T07:01:03.049Z,95.64
2022-08-07T07:03:39.633Z,92.75
2022-08-07T07:06:23.763Z,93.62
2022-08-07T07:08:53.133Z,94.30
2022-08-07T07:12:08.310Z,94.66
2022-08-07T07:14:11.868Z,93.51
2022-08-07T07:16:50.826Z,89.77
2022-08-07T07:19:56.579Z,90.62
2022-08-07T07:22:35.715Z,91.24
2022-08-07T07:26:30.659Z,89.63
2022-08-07T07:28:42.262Z,89.23
2022-08-07T07:31:08.013Z,91.58
2022-08-07T07:33:39.362Z,90.99
2022-08-07T07:36:13.185Z,87.62
2022-08-07T07:38:46.137Z,85.53
2022-08-07T07:41:21.593Z,81.52
2022-08-07T07:44:14.476Z,76.23
2022-08-07T07:46:55.231Z,76.97
2022-08-07T07:50:35.484Z,74.14
2022-08-07T07:52:25.274Z,73.01
2022-08-07T07:54:55.617Z,72.83
2022-08-07T07:57:43.660Z,73.19
2022-08-07T08:00:29.948Z,71.32
2022-08-07T08:03:16.299Z,72.40
2022-08-07T08:05:55.183Z,69.53
2022-08-07T08:08:34.258Z,69.69
2022-08-07T08:11:09.299Z,68.54
2022-08-07T08:13:54.348Z,66.56
2022-08-07T08:16:37.004Z,66.73
2022-08-07T08:20:15.766Z,65.10
2022-08-07T08:22:20.116Z,63.08
2022-08-07T08:25:24.555Z,63.55
2022-08-07T08:28:03.627Z,63.35
2022-08-07T08:30:42.487Z,64.38
2022-08-07T08:33:18.629Z,64.81
2022-08-07T08:35:54.582Z,61.41
2022-08-07T08:38:40.479Z,61.04
2022-08-07T08:42:06.943Z,61.84
2022-08-07T08:44:52.953Z,63.91
2022-08-07T08:47:52.278Z,68.46
2022-08-07T08:50:40.258Z,68.38
2022-08-07T08:53:53.615Z,69.91
2022-08-07T08:56:32.563Z,70.08
2022-08-07T08:59:42.097Z,70.88
2022-08-07T09:02:40.354Z,69.67
2022-08-07T09:05:37.129Z,68.01
2022-08-07T09:08:57.855Z,67.39
2022-08-07T09:11:56.739Z,66.45
2022-08-07T09:14:50.616Z,67.73
2022-08-07T09:17:58.896Z,67.00
2022-08-07T09:20:58.494Z,68.32
2022-08-07T09:24:32.712Z,68.69
2022-08-07T09:27:54.948Z,69.90
2022-08-07T09:30:28.154Z,71.43
2022-08-07T09:33:57.441Z,71.75
2022-08-07T09:37:06.652Z,73.41
2022-08-07T09:40:07.218Z,75.81
2022-08-07T09:43:13.027Z,78.29
2022-08-07T09:47:24.494Z,79.22
2022-08-07T09:50:00.573Z,79.94
2022-08-07T09:52:56.654Z,80.47
2022-08-07T09:56:04.036Z,82.62
2022-08-07T09:59:07.844Z,82.96
2022-08-07T10:02:08.546Z,81.14
2022-08-07T10:04:57.130Z,79.96
2022-08-07T10:08:04.313Z,78.50
2022-08-07T10:11:59.671Z,76.81
2022-08-07T10:14:54.277Z,71.40
2022-08-07T10:18:06.182Z,67.27
2022-08-07T10:21:20.095Z,66.12
2022-08-07T10:24:49.845Z,68.09
2022-08-07T10:27:17.587Z,70.55
2022-08-07T10:30:13.252Z,70.32
2022-08-07T10:34:06.389Z,71.26
2022-08-07T10:38:00.081Z,70.41
2022-08-07T10:40:40.302Z,62.80
2022-08-07T10:43:35.453Z,63.95
2022-08-07T10:46:20.314Z,60.28
2022-08-07T10:49:49.815Z,61.15
2022-08-07T10:52:40.071Z,63.57
2022-08-07T10:55:37.945Z,65.78
2022-08-07T10:58:46.182Z,62.54
2022-08-07T11:02:33.375Z,62.25
2022-08-07T11:06:18.279Z,60.06
2022-08-07T11:10:07.341Z,55.64
2022-08-07T11:12:32.139Z,57.81
2022-08-07T11:15:21.281Z,55.67
2022-08-07T11:18:21.637Z,55.86
2022-08-07T11:21:42.897Z,51.53
2022-08-07T11:24:55.802Z,53.90
2022-08-07T11:28:01.326Z,56.94
2022-08-07T11:30:52.389Z,55.14
2022-08-07T11:33:58.356Z,53.80
2022-08-07T11:37:06.758Z,50.02
2022-08-07T11:40:03.458Z,50.06
2022-08-07T11:42:54.174Z,51.26
2022-08-07T11:46:16.935Z,55.59
2022-08-07T11:50:31.611Z,57.39
2022-08-07T11:53:22.713Z,60.81
2022-08-07T11:56:26.871Z,63.18
2022-08-07T12:00:12.183Z,64.99
2022-08-07T12:03:45.606Z,68.68
2022-08-07T12:07:07.973Z,68.87
2022-08-07T12:10:05.848Z,70.39
2022-08-07T12:12:51.476Z,69.42
2022-08-07T12:15:46.247Z,69.65
2022-08-07T12:18:45.479Z,71.14
2022-08-07T12:21:55.513Z,72.53
2022-08-07T12:26:00.447Z,73.44
2022-08-07T12:28:30.795Z,72.73
2022-08-07T12:31:17.162Z,72.52
2022-08-07T12:33:55.958Z,73.51
2022-08-07T12:36:33.541Z,72.25
2022-08-07T12:39:42.052Z,70.10
2022-08-07T12:41:55.881Z,67.89
2022-08-07T12:44:28.954Z,64.69
2022-08-07T12:47:55.492Z,64.20
2022-08-07T12:50:48.990Z,62.28
2022-08-07T12:53:17.866Z,62.18
2022-08-07T12:56:27.671Z,62.72
2022-08-07T12:58:59.610Z,63.68
2022-08-07T13:01:50.281Z,64.54
2022-08-07T13:05:02.839Z,64.56
2022-08-07T13:08:38.699Z,65.55
2022-08-07T13:12:03.449Z,65.00
2022-08-07T13:15:02.559Z,60.56
2022-08-07T13:17:52.683Z,55.62
2022-08-07T13:20:44.489Z,54.33
2022-08-07T13:24:01.537Z,55.41
2022-08-07T13:26:33.753Z,52.38
2022-08-07T13:29:58.842Z,53.28
2022-08-07T13:32:55.442Z,52.38
2022-08-07T13:36:00.627Z,52.66
2022-08-07T13:38:48.789Z,54.33
2022-08-07T13:41:42.503Z,53.75
2022-08-07T13:44:26.401Z,49.63
2022-08-07T13:47:01.022Z,48.50
2022-08-07T13:50:34.578Z,49.18
2022-08-07T13:52:41.006Z,51.09
2022-08-07T13:55:26.593Z,46.43
2022-08-07T13:58:27.880Z,50.63
2022-08-07T14:01:10.443Z,50.33
2022-08-07T14:04:07.699Z,49.13
2022-08-07T14:06:38.395Z,53.21
2022-08-07T14:09:17.104Z,53.33
2022-08-07T14:12:07.260Z,54.15
2022-08-07T14:14:48.029Z,50.88
2022-08-07T14:18:12.278Z,49.70
2022-08-07T14:20:41.647Z,48.73
2022-08-07T14:23:31.675Z,50.79
2022-08-07T14:26:29.885Z,50.54
2022-08-07T14:30:08.227Z,52.37
2022-08-07T14:31:56.559Z,53.15
2022-08-07T14:34:30.826Z,54.47
2022-08-07T14:37:16.371Z,56.30
2022-08-07T14:40:15.886Z,53.50
2022-08-07T14:43:00.882Z,53.69
2022-08-07T14:45:46.688Z,55.51
2022-08-07T14:48:27.515Z,54.68
2022-08-07T14:51:00.641Z,52.88
2022-08-07T14:54:03.606Z,53.09
2022-08-07T14:56:30.001Z,55.45
2022-08-07T14:59:13.464Z,55.97
2022-08-07T15:01:58.725Z,57.11
2022-08-07T15:04:28.907Z,56.73
2022-08-07T15:06:58.068Z,57.92
2022-08-07T15:09:58.408Z,56.66
2022-08-07T15:12:30.548Z,56.31
2022-08-07T15:18:33.627Z,55.32
2022-08-07T15:25:13.105Z,58.23
2022-08-07T15:27:11.147Z,59.28
2022-08-07T15:30:09.206Z,60.03
2022-08-07T15:33:04.008Z,59.67
2022-08-07T15:36:00.689Z,54.71
2022-08-07T15:38:59.361Z,52.99
2022-08-07T15:42:45.951Z,56.01
2022-08-07T15:44:21.237Z,58.84
2022-08-07T15:47:09.062Z,60.26
2022-08-07T15:50:05.694Z,61.55
2022-08-07T15:52:38.846Z,58.64
2022-08-07T15:55:12.757Z,55.54
2022-08-07T15:57:48.461Z,53.60
2022-08-07T16:00:31.528Z,55.62
2022-08-07T16:03:22.072Z,56.60
2022-08-07T16:06:01.027Z,59.37
2022-08-07T16:08:38.892Z,59.85
2022-08-07T16:11:29.263Z,56.17
2022-08-07T16:14:43.697Z,53.09
2022-08-07T16:18:01.840Z,51.42
2022-08-07T16:20:55.130Z,49.71
2022-08-07T16:24:09.231Z,51.29
2022-08-07T16:27:17.915Z,51.19
2022-08-07T16:30:30.459Z,50.45
2022-08-07T16:34:01.549Z,50.39
2022-08-07T16:37:02.341Z,50.72
2022-08-07T16:40:28.408Z,53.46
2022-08-07T16:44:40.528Z,55.68
2022-08-07T16:47:55.921Z,57.03
2022-08-07T16:51:21.801Z,60.28
2022-08-07T16:54:54.907Z,61.73
2022-08-07T16:58:02.598Z,61.01
2022-08-07T17:00:51.928Z,57.37
2022-08-07T17:03:59.815Z,60.78
2022-08-07T17:07:03.205Z,59.53
2022-08-07T17:10:08.154Z,55.12
2022-08-07T17:12:56.446Z,54.68
2022-08-07T17:15:56.861Z,55.14
2022-08-07T17:18:51.882Z,56.70
2022-08-07T17:21:51.544Z,58.17
2022-08-07T17:24:55.716Z,59.60
2022-08-07T17:27:39.848Z,61.02
2022-08-07T17:30:35.411Z,61.46
2022-08-07T17:34:08.545Z,63.39
2022-08-07T17:36:32.308Z,65.03
2022-08-07T17:39:58.222Z,66.34
2022-08-07T17:42:59.869Z,67.28
2022-08-07T17:45:39.689Z,69.40
2022-08-07T17:48:34.229Z,70.13
2022-08-07T17:51:59.848Z,70.30
2022-08-07T17:54:40.070Z,70.06
2022-08-07T17:57:59.261Z,70.80
2022-08-07T18:00:49.125Z,71.46
2022-08-07T18:04:04.392Z,71.91
2022-08-07T18:06:38.921Z,74.00
2022-08-07T18:09:09.640Z,74.22
2022-08-07T18:12:17.690Z,73.67
2022-08-07T18:15:08.794Z,73.25
2022-08-07T18:18:47.318Z,74.18
2022-08-07T18:21:42.212Z,73.98
2022-08-07T18:24:00.942Z,75.58
2022-08-07T18:27:18.197Z,76.76
2022-08-07T18:30:08.344Z,77.95
2022-08-07T18:33:30.942Z,78.96
2022-08-07T18:36:33.238Z,79.81
2022-08-07T18:40:07.291Z,80.70
2022-08-07T18:42:36.439Z,82.19
2022-08-07T18:45:44.065Z,83.34
2022-08-07T18:50:31.210Z,85.01
2022-08-07T18:52:35.346Z,86.68
2022-08-07T18:55:42.301Z,88.96
2022-08-07T18:58:58.700Z,90.95
2022-08-07T19:02:32.333Z,93.13
2022-08-07T19:05:15.913Z,94.05
2022-08-07T19:08:11.308Z,95.81
2022-08-07T19:10:55.352Z,96.51
2022-08-07T19:13:50.311Z,96.99
2022-08-07T19:17:04.871Z,99.54
2022-08-07T19:20:28.976Z,100.00
2022-08-07T19:23:59.161Z,100.00
2022-08-07T19:26:28.832Z,100.00
2022-08-07T19:31:05.965Z,100.00
2022-08-07T19:32:18.833Z,100.00
2022-08-07T19:35:03.111Z,100.00
2022-08-07T19:37:55.563Z,100.00
2022-08-07T19:40:49.240Z,100.00
2022-08-07T19:43:49.466Z,100.00
2022-08-07T19:47:02.002Z,100.00
2022-08-07T19:49:57.096Z,100.00
2022-08-07T19:52:33.013Z,100.00
2022-08-07T19:55:03.120Z,100.00
2022-08-07T19:58:02.348Z,100.00
2022-08-07T20:00:54.282Z,100.00
2022-08-07T20:03:34.697Z,100.00
2022-08-07T20:06:06.823Z,100.00
2022-08-07T20:08:50.413Z,100.00
2022-08-07T20:11:34.122Z,100.00
2022-08-07T20:14:13.696Z,100.00
2022-08-07T20:16:48.366Z,100.00
2022-08-07T20:19:28.849Z,100.00
2022-08-07T20:22:29.413Z,100.00
2022-08-07T20:25:12.539Z,100.00
2022-08-07T20:27:54.367Z,100.00
2022-08-07T20:30:34.258Z,100.00
2022-08-07T20:33:08.932Z,100.00
2022-08-07T20:36:01.466Z,100.00
2022-08-07T20:38:32.576Z,100.00
2022-08-07T20:41:05.616Z,100.00
2022-08-07T20:43:36.095Z,100.00
2022-08-07T20:46:26.827Z,100.00
2022-08-07T20:50:00.966Z,100.00
2022-08-07T20:51:50.759Z,100.00
2022-08-07T20:54:29.958Z,100.00
2022-08-07T20:57:08.184Z,100.00
2022-08-07T21:00:04.861Z,100.00
2022-08-07T21:02:55.351Z,100.00
2022-08-07T21:05:52.822Z,100.00
2022-08-07T21:08:52.325Z,100.00
2022-08-07T21:11:29.014Z,100.00
2022-08-07T21:14:33.069Z,100.00
2022-08-07T21:18:03.075Z,100.00
2022-08-07T21:20:05.231Z,100.00
2022-08-07T21:22:51.012Z,100.00
2022-08-07T21:25:19.877Z,100.00
2022-08-07T21:28:48.805Z,100.00
2022-08-07T21:32:42.284Z,100.00
2022-08-07T21:34:58.022Z,100.00
2022-08-07T21:37:57.981Z,100.00
2022-08-07T21:41:10.974Z,100.00
2022-08-07T21:43:55.432Z,100.00
2022-08-07T21:46:47.497Z,100.00
2022-08-07T21:50:02.646Z,100.00
2022-08-07T21:52:58.410Z,100.00
2022-08-07T21:55:45.481Z,100.00
2022-08-07T21:58:37.357Z,100.00
2022-08-07T22:02:11.557Z,100.00
2022-08-07T22:04:53.421Z,100.00
2022-08-07T22:07:31.630Z,100.00
2022-08-07T22:10:17.536Z,100.00
2022-08-07T22:12:55.377Z,100.00
2022-08-07T22:16:39.739Z,100.00
2022-08-07T22:18:59.308Z,100.00
2022-08-07T22:22:04.561Z,100.00
2022-08-07T22:24:56.396Z,100.00
2022-08-07T22:28:02.966Z,100.00
2022-08-07T22:30:54.894Z,100.00
2022-08-07T22:33:56.774Z,100.00
2022-08-07T22:38:03.748Z,100.00
2022-08-07T22:41:13.176Z,100.00
2022-08-07T22:43:50.491Z,100.00
2022-08-07T22:47:16.804Z,100.00
2022-08-07T22:50:20.775Z,100.00
2022-08-07T22:54:07.643Z,100.00
2022-08-07T22:57:37.352Z,100.00
2022-08-07T23:00:48.462Z,100.00
2022-08-07T23:04:00.039Z,100.00
2022-08-07T23:07:40.421Z,100.00
2022-08-07T23:10:47.817Z,100.00
2022-08-07T23:13:49.091Z,100.00
2022-08-07T23:17:19.885Z,100.00
2022-08-07T23:20:40.600Z,100.00
2022-08-07T23:24:30.848Z,100.00
2022-08-07T23:27:34.096Z,100.00
2022-08-07T23:30:37.935Z,100.00
2022-08-07T23:34:36.887Z,100.00
2022-08-07T23:37:29.610Z,100.00
2022-08-07T23:40:51.899Z,100.00
2022-08-07T23:44:17.447Z,100.00
2022-08-07T23:47:51.282Z,100.00
2022-08-07T23:50:36.657Z,100.00
2022-08-07T23:53:49.560Z,100.00
2022-08-07T23:57:14.040Z,100.00
